Time;durP1;ratioP1;P1;durP2;ratioP2;P2;SDS_P1;SDS_P2;PMS_P1;PMS_P2;Temp;Humidity;BMP_temperature;BMP_pressure;BME280_temperature;BME280_humidity;BME280_pressure;Samples;Min_cycle;Max_cycle;Signal;HPM_P1;HPM_P2
2024/03/02 00:00:49;;;;;;;;;;;4.90;99.90;;;-146.41;100.00;57768.22;5056840;28;1483;-69
2024/03/02 00:03:17;;;;;;;;;;;4.90;99.90;;;-146.41;100.00;57768.22;5042452;28;1918;-69
2024/03/02 00:05:48;;;;;;;;;;;4.90;99.90;;;-146.41;100.00;57768.22;5039252;28;1200;-69
2024/03/02 00:08:25;;;;;;;;;;;4.90;99.90;;;-146.41;100.00;57768.22;5041791;28;1160;-69
2024/03/02 00:10:57;;;;;;;;;;;5.00;99.90;;;-146.41;100.00;57768.22;5040934;28;1512;-69
2024/03/02 00:13:24;;;;;;;;;;;5.00;99.90;;;-146.41;100.00;57768.22;5040864;28;1330;-69
2024/03/02 00:15:55;;;;;;;;;;;4.90;99.90;;;-146.41;100.00;57768.22;5040721;28;1630;-69
2024/03/02 00:18:35;;;;;;;;;;;5.00;99.90;;;-146.41;100.00;57768.22;5042405;28;1365;-69
2024/03/02 00:21:03;;;;;;;;;;;5.00;99.90;;;-146.41;100.00;57768.22;5053814;28;1382;-69
2024/03/02 00:23:31;;;;;;;;;;;5.00;99.90;;;-146.41;100.00;57768.22;5042680;28;1946;-69
2024/03/02 00:25:59;;;;;;;;;;;5.00;99.90;;;-146.41;100.00;57768.22;5041787;28;1623;-69
2024/03/02 00:28:34;;;;;;;;;;;4.90;99.90;;;-146.41;100.00;57768.22;5043835;28;1544;-69
2024/03/02 00:31:04;;;;;;;;;;;5.00;99.90;;;-146.41;100.00;57768.22;5041094;28;1485;-69
2024/03/02 00:33:45;;;;;;;;;;;5.00;99.90;;;-146.41;100.00;57768.22;5037805;28;1289;-69
2024/03/02 00:36:22;;;;;;;;;;;5.10;99.90;;;-146.41;100.00;57768.22;5058121;28;1429;-69
2024/03/02 00:38:51;;;;;;;;;;;5.10;99.90;;;-146.41;100.00;57768.22;5040277;28;1403;-69
2024/03/02 00:41:29;;;;;;;;;;;5.10;99.90;;;-146.41;100.00;57768.22;5040649;28;1395;-69
2024/03/02 00:44:05;;;;;;;;;;;5.20;99.90;;;-146.41;100.00;57768.22;5042362;28;1969;-69
2024/03/02 00:46:34;;;;;;;;;;;5.10;99.90;;;-146.41;100.00;57768.22;5044113;28;1298;-69
2024/03/02 00:49:06;;;;;;;;;;;5.20;99.90;;;-146.41;100.00;57768.22;5042176;28;1418;-69
2024/03/02 00:51:34;;;;;;;;;;;5.20;99.90;;;-146.41;100.00;57768.22;5057200;28;1454;-69
2024/03/02 00:54:04;;;;;;;;;;;5.10;99.90;;;-146.41;100.00;57768.22;5040724;28;1631;-69
2024/03/02 00:56:32;;;;;;;;;;;5.00;99.90;;;-146.41;100.00;57768.22;5055407;28;1492;-69
2024/03/02 00:58:59;;;;;;;;;;;5.00;99.90;;;-146.41;100.00;57768.22;5042373;28;1296;-69
2024/03/02 01:01:26;;;;;;;;;;;4.90;99.90;;;-146.41;100.00;57768.22;5053771;28;1495;-69
2024/03/02 01:03:53;;;;;;;;;;;4.90;99.90;;;-146.41;100.00;57768.22;5039659;28;1926;-69
2024/03/02 01:06:20;;;;;;;;;;;4.90;99.90;;;-146.41;100.00;57768.22;5040097;28;1280;-69
2024/03/02 01:08:50;;;;;;;;;;;4.90;99.90;;;-146.41;100.00;57768.22;5044217;28;1396;-69
2024/03/02 01:11:18;;;;;;;;;;;5.00;99.90;;;-146.41;100.00;57768.22;5043409;28;1328;-69
2024/03/02 01:13:46;;;;;;;;;;;4.90;99.90;;;-146.41;100.00;57768.22;5039840;28;1313;-69
2024/03/02 01:16:13;;;;;;;;;;;5.00;99.90;;;-146.41;100.00;57768.22;5043289;28;1293;-69
2024/03/02 01:18:40;;;;;;;;;;;5.00;99.90;;;-146.41;100.00;57768.22;5039775;28;1341;-69
2024/03/02 01:21:07;;;;;;;;;;;5.00;99.90;;;-146.41;100.00;57768.22;5041717;28;1394;-70
2024/03/02 01:23:34;;;;;;;;;;;5.00;99.90;;;-146.41;100.00;57768.22;5038711;28;1902;-69
2024/03/02 01:26:01;;;;;;;;;;;5.00;99.90;;;-146.41;100.00;57768.22;5040336;28;1522;-69
2024/03/02 01:28:28;;;;;;;;;;;5.00;99.90;;;-146.41;100.00;57768.22;5040302;28;1301;-69
2024/03/02 01:30:54;;;;;;;;;;;4.90;99.90;;;-146.41;100.00;57768.22;5041350;28;1437;-69
2024/03/02 01:33:21;;;;;;;;;;;4.90;99.90;;;-146.41;100.00;57768.22;5043810;28;1452;-69
2024/03/02 01:35:48;;;;;;;;;;;4.90;99.90;;;-146.41;100.00;57768.22;5037931;28;1674;-69
2024/03/02 01:38:15;;;;;;;;;;;4.90;99.90;;;-146.41;100.00;57768.22;5043493;28;1440;-69
2024/03/02 01:40:42;;;;;;;;;;;4.90;99.90;;;-146.41;100.00;57768.22;5057601;28;1396;-69
2024/03/02 01:43:08;;;;;;;;;;;4.90;99.90;;;-146.41;100.00;57768.22;5026928;28;1977;-69
2024/03/02 01:45:37;;;;;;;;;;;4.90;99.90;;;-146.41;100.00;57768.22;5041951;28;1305;-69
2024/03/02 01:48:05;;;;;;;;;;;5.00;99.90;;;-146.41;100.00;57768.22;5039664;28;1273;-69
2024/03/02 01:50:33;;;;;;;;;;;4.90;99.90;;;-146.41;100.00;57768.22;5041157;28;1335;-69
2024/03/02 01:53:00;;;;;;;;;;;5.00;99.90;;;-146.41;100.00;57768.22;5023480;28;1661;-69
2024/03/02 01:55:29;;;;;;;;;;;5.10;99.90;;;-146.41;100.00;57768.22;5037582;28;1204;-69
2024/03/02 01:57:56;;;;;;;;;;;5.10;99.90;;;-146.41;100.00;57768.22;5039225;28;1423;-69
2024/03/02 02:00:25;;;;;;;;;;;5.10;99.90;;;-146.41;100.00;57768.22;5055709;28;1296;-69
2024/03/02 02:02:52;;;;;;;;;;;5.00;99.90;;;-146.41;100.00;57768.22;5037969;28;1910;-69
2024/03/02 02:05:18;;;;;;;;;;;5.10;99.90;;;-146.41;100.00;57768.22;5042776;28;1488;-69
2024/03/02 02:07:45;;;;;;;;;;;5.10;99.90;;;-146.41;100.00;57768.22;5037672;28;1374;-69
2024/03/02 02:10:12;;;;;;;;;;;5.10;99.90;;;-146.41;100.00;57768.22;5035784;28;1386;-69
2024/03/02 02:12:39;;;;;;;;;;;5.10;99.90;;;-146.41;100.00;57768.22;5039679;28;1066;-69
2024/03/02 02:15:26;;;;;;;;;;;5.20;99.90;;;-146.41;100.00;57768.22;5025191;28;1237;-69
2024/03/02 02:17:54;;;;;;;;;;;5.20;99.90;;;-146.41;100.00;57768.22;5054142;28;1201;-69
2024/03/02 02:20:21;;;;;;;;;;;5.20;99.90;;;-146.41;100.00;57768.22;5034726;28;1291;-69
2024/03/02 02:22:55;;;;;;;;;;;5.20;99.90;;;-146.41;100.00;57768.22;5036544;28;1906;-69
2024/03/02 02:25:21;;;;;;;;;;;5.30;99.90;;;-146.41;100.00;57768.22;5055647;28;1226;-69
2024/03/02 02:27:49;;;;;;;;;;;5.20;99.90;;;-146.41;100.00;57768.22;5038167;28;1160;-69
2024/03/02 02:30:25;;;;;;;;;;;5.20;99.90;;;-146.41;100.00;57768.22;5038562;28;1407;-69
2024/03/02 02:32:52;;;;;;;;;;;5.20;99.90;;;-146.41;100.00;57768.22;5040913;28;1098;-69
2024/03/02 02:35:19;;;;;;;;;;;5.20;99.90;;;-146.41;100.00;57768.22;5040598;28;1082;-69
2024/03/02 02:37:46;;;;;;;;;;;5.20;99.90;;;-146.41;100.00;57768.22;5039773;28;1284;-70
2024/03/02 02:40:14;;;;;;;;;;;5.20;99.90;;;-146.41;100.00;57768.22;5037418;28;1410;-69
2024/03/02 02:42:40;;;;;;;;;;;5.30;99.90;;;-146.41;100.00;57768.22;5039333;28;1902;-69
2024/03/02 02:45:07;;;;;;;;;;;5.40;99.90;;;-146.41;100.00;57768.22;5038747;28;1134;-69
2024/03/02 02:47:37;;;;;;;;;;;5.30;99.90;;;-146.41;100.00;57768.22;5035642;28;1281;-69
2024/03/02 02:50:07;;;;;;;;;;;5.30;99.90;;;-146.41;100.00;57768.22;5039355;28;1380;-69
2024/03/02 02:52:36;;;;;;;;;;;5.40;99.90;;;-146.41;100.00;57768.22;5036863;28;1089;-69
2024/03/02 02:55:04;;;;;;;;;;;5.40;99.90;;;-146.41;100.00;57768.22;5033949;28;1111;-69
2024/03/02 02:57:35;;;;;;;;;;;5.40;99.90;;;-146.41;100.00;57768.22;5038536;28;1150;-70
2024/03/02 03:00:10;;;;;;;;;;;5.40;99.90;;;-146.41;100.00;57768.22;5040206;28;1055;-70
2024/03/02 03:02:38;;;;;;;;;;;5.50;99.90;;;-146.41;100.00;57768.22;5040017;28;1923;-70
2024/03/02 03:05:09;;;;;;;;;;;5.50;99.90;;;-146.41;100.00;57768.22;5039477;28;1248;-69
2024/03/02 03:07:37;;;;;;;;;;;5.40;99.90;;;-146.41;100.00;57768.22;5042976;28;1249;-69
2024/03/02 03:10:05;;;;;;;;;;;5.40;99.90;;;-146.41;100.00;57768.22;5036847;28;1299;-69
2024/03/02 03:12:32;;;;;;;;;;;5.30;99.90;;;-146.41;100.00;57768.22;5038468;28;1055;-69
2024/03/02 03:14:59;;;;;;;;;;;5.30;99.90;;;-146.41;100.00;57768.22;5035337;28;1233;-69
2024/03/02 03:17:27;;;;;;;;;;;5.30;99.90;;;-146.41;100.00;57768.22;5039641;28;1228;-69
2024/03/02 03:19:54;;;;;;;;;;;5.30;99.90;;;-146.41;100.00;57768.22;5038333;28;1169;-69
2024/03/02 03:22:21;;;;;;;;;;;5.30;99.90;;;-146.41;100.00;57768.22;5039303;28;1969;-70
2024/03/02 03:24:48;;;;;;;;;;;5.30;99.90;;;-146.41;100.00;57768.22;5040874;28;1093;-69
2024/03/02 03:27:15;;;;;;;;;;;5.20;99.90;;;-146.41;100.00;57768.22;5043910;28;1435;-70
2024/03/02 03:29:42;;;;;;;;;;;5.20;99.90;;;-146.41;100.00;57768.22;5044721;28;1319;-69
2024/03/02 03:32:08;;;;;;;;;;;5.10;99.90;;;-146.41;100.00;57768.22;5042922;28;1238;-69
2024/03/02 03:34:35;;;;;;;;;;;5.20;99.90;;;-146.41;100.00;57768.22;5047180;28;1396;-70
2024/03/02 03:37:03;;;;;;;;;;;5.30;99.90;;;-146.41;100.00;57768.22;5042108;28;1059;-69
2024/03/02 03:39:30;;;;;;;;;;;5.30;99.90;;;-146.41;100.00;57768.22;5058211;28;1232;-69
2024/03/02 03:41:56;;;;;;;;;;;5.30;99.90;;;-146.41;100.00;57768.22;5044010;28;1303;-69
2024/03/02 03:44:24;;;;;;;;;;;5.40;99.90;;;-146.41;100.00;57768.22;5039447;28;1902;-67
2024/03/02 03:46:50;;;;;;;;;;;5.40;99.90;;;-146.41;100.00;57768.22;5044238;28;1280;-69
2024/03/02 03:49:17;;;;;;;;;;;5.40;99.90;;;-146.41;100.00;57768.22;5045814;28;1237;-68
2024/03/02 03:51:44;;;;;;;;;;;5.40;99.90;;;-146.41;100.00;57768.22;5041590;28;1435;-70
2024/03/02 03:54:11;;;;;;;;;;;5.50;99.90;;;-146.41;100.00;57768.22;5044474;28;1165;-70
2024/03/02 03:56:38;;;;;;;;;;;5.50;99.90;;;-146.41;100.00;57768.22;5039237;28;1196;-70
2024/03/02 03:59:05;;;;;;;;;;;5.60;99.90;;;-146.41;100.00;57768.22;5041708;28;1190;-69
2024/03/02 04:01:31;;;;;;;;;;;5.60;99.90;;;-146.41;100.00;57768.22;5043529;28;1417;-69
2024/03/02 04:03:58;;;;;;;;;;;5.60;99.90;;;-146.41;100.00;57768.22;5055155;28;1930;-70
2024/03/02 04:06:25;;;;;;;;;;;5.60;99.90;;;-146.41;100.00;57768.22;5041978;28;1288;-69
2024/03/02 04:08:52;;;;;;;;;;;5.50;99.90;;;-146.41;100.00;57768.22;5041906;28;1309;-69
2024/03/02 04:11:19;;;;;;;;;;;5.50;99.90;;;-146.41;100.00;57768.22;5041563;28;1409;-69
2024/03/02 04:13:45;;;;;;;;;;;5.60;99.90;;;-146.41;100.00;57768.22;5040366;28;1220;-69
2024/03/02 04:16:12;;;;;;;;;;;5.50;99.90;;;-146.41;100.00;57768.22;5040974;28;1291;-70
2024/03/02 04:18:39;;;;;;;;;;;5.50;99.90;;;-146.41;100.00;57768.22;5042700;28;1260;-70
2024/03/02 04:21:06;;;;;;;;;;;5.70;99.90;;;-146.41;100.00;57768.22;5041818;28;1336;-69
2024/03/02 04:23:33;;;;;;;;;;;5.70;99.90;;;-146.41;100.00;57768.22;5039435;28;1934;-69
2024/03/02 04:26:00;;;;;;;;;;;5.80;99.90;;;-146.41;100.00;57768.22;5041531;28;1184;-70
2024/03/02 04:28:27;;;;;;;;;;;5.80;99.90;;;-146.41;100.00;57768.22;5039239;28;1237;-69
2024/03/02 04:30:53;;;;;;;;;;;5.80;99.90;;;-146.41;100.00;57768.22;5040588;28;1304;-70
2024/03/02 04:33:20;;;;;;;;;;;5.90;99.90;;;-146.41;100.00;57768.22;5040820;28;1245;-69
2024/03/02 04:35:47;;;;;;;;;;;6.00;99.90;;;-146.41;100.00;57768.22;5041947;28;1248;-70
2024/03/02 04:38:14;;;;;;;;;;;6.00;99.90;;;-146.41;100.00;57768.22;5042073;28;1153;-69
2024/03/02 04:40:41;;;;;;;;;;;5.90;99.90;;;-146.41;100.00;57768.22;5040721;28;1394;-69
2024/03/02 04:43:09;;;;;;;;;;;5.90;99.90;;;-146.41;100.00;57768.22;5057273;28;2015;-69
2024/03/02 04:45:38;;;;;;;;;;;5.90;99.90;;;-146.41;100.00;57768.22;5042152;28;1173;-69
2024/03/02 04:48:05;;;;;;;;;;;5.90;99.90;;;-146.41;100.00;57768.22;5038829;28;1405;-69
2024/03/02 04:50:32;;;;;;;;;;;6.00;99.90;;;-146.41;100.00;57768.22;5039611;28;1368;-69
2024/03/02 04:52:59;;;;;;;;;;;6.00;99.90;;;-146.41;100.00;57768.22;5039740;28;1102;-69
2024/03/02 04:57:55;;;;;;;;;;;6.10;99.90;;;-146.41;100.00;57768.22;5040296;28;1466;-69
2024/03/02 05:00:23;;;;;;;;;;;6.10;99.90;;;-146.41;100.00;57768.22;5041855;28;1434;-69
2024/03/02 05:02:51;;;;;;;;;;;6.10;99.90;;;-146.41;100.00;57768.22;5044765;28;1986;-69
2024/03/02 05:05:17;;;;;;;;;;;6.10;99.90;;;-146.41;100.00;57768.22;5038845;28;1219;-69
2024/03/02 05:07:44;;;;;;;;;;;6.20;99.90;;;-146.41;100.00;57768.22;5039885;28;1217;-69
2024/03/02 05:10:11;;;;;;;;;;;6.20;99.90;;;-146.41;100.00;57768.22;5041630;28;1391;-69
2024/03/02 05:15:12;;;;;;;;;;;6.30;99.90;;;-146.41;100.00;57768.22;5039324;28;1173;-69
2024/03/02 05:17:40;;;;;;;;;;;6.40;99.90;;;-146.41;100.00;57768.22;5040971;28;1228;-69
2024/03/02 05:20:10;;;;;;;;;;;6.50;99.90;;;-146.41;100.00;57768.22;5040618;28;1287;-69
2024/03/02 05:22:37;;;;;;;;;;;6.50;99.90;;;-146.41;100.00;57768.22;5039518;28;1419;-69
2024/03/02 05:25:05;;;;;;;;;;;6.50;99.90;;;-146.41;100.00;57768.22;5041052;28;2001;-69
2024/03/02 05:27:32;;;;;;;;;;;6.60;99.90;;;-146.41;100.00;57768.22;5038311;28;1273;-69
2024/03/02 05:30:00;;;;;;;;;;;6.60;99.90;;;-146.41;100.00;57768.22;5041406;28;1228;-69
2024/03/02 05:32:27;;;;;;;;;;;6.60;99.90;;;-146.41;100.00;57768.22;5037345;28;1382;-69
2024/03/02 05:34:53;;;;;;;;;;;6.60;99.90;;;-146.41;100.00;57768.22;5041874;28;1423;-70
2024/03/02 05:37:20;;;;;;;;;;;6.70;99.90;;;-146.41;100.00;57768.22;5038857;28;1300;-69
2024/03/02 05:39:47;;;;;;;;;;;6.70;99.90;;;-146.41;100.00;57768.22;5037540;28;1142;-69
2024/03/02 05:42:14;;;;;;;;;;;6.70;99.90;;;-146.41;100.00;57768.22;5040433;28;1350;-69
2024/03/02 05:44:41;;;;;;;;;;;6.70;99.90;;;-146.41;100.00;57768.22;5039063;28;2043;-69
2024/03/02 05:47:08;;;;;;;;;;;6.70;99.90;;;-146.41;100.00;57768.22;5037564;28;1118;-69
2024/03/02 05:49:35;;;;;;;;;;;6.80;99.90;;;-146.41;100.00;57768.22;5040634;28;1200;-69
2024/03/02 05:52:03;;;;;;;;;;;6.80;99.90;;;-146.41;100.00;57768.22;5038044;28;1375;-70
2024/03/02 05:54:30;;;;;;;;;;;6.90;99.90;;;-146.41;100.00;57768.22;5037275;28;1121;-69
2024/03/02 05:56:56;;;;;;;;;;;6.80;99.90;;;-146.41;100.00;57768.22;5038272;28;1188;-69
2024/03/02 05:59:23;;;;;;;;;;;6.80;99.90;;;-146.41;100.00;57768.22;5041454;28;1197;-69
2024/03/02 06:01:51;;;;;;;;;;;6.90;99.90;;;-146.41;100.00;57768.22;5046035;28;1342;-69
2024/03/02 06:04:18;;;;;;;;;;;6.90;99.90;;;-146.41;100.00;57768.22;5039503;28;1902;-69
2024/03/02 06:06:45;;;;;;;;;;;6.90;99.90;;;-146.41;100.00;57768.22;5039693;28;1479;-69
2024/03/02 06:09:12;;;;;;;;;;;6.90;99.90;;;-146.41;100.00;57768.22;5039786;28;1150;-69
2024/03/02 06:11:40;;;;;;;;;;;6.90;99.90;;;-146.41;100.00;57768.22;5037922;28;1355;-69
2024/03/02 06:14:08;;;;;;;;;;;6.80;99.90;;;-146.41;100.00;57768.22;5039019;28;1113;-69
2024/03/02 06:16:35;;;;;;;;;;;6.90;99.90;;;-146.41;100.00;57768.22;5039294;28;1230;-69
2024/03/02 06:19:02;;;;;;;;;;;6.90;99.90;;;-146.41;100.00;57768.22;5054858;28;1090;-69
2024/03/02 06:21:29;;;;;;;;;;;6.90;99.90;;;-146.41;100.00;57768.22;5038766;28;1359;-69
2024/03/02 06:23:56;;;;;;;;;;;6.90;99.90;;;-146.41;100.00;57768.22;5039736;28;1910;-69
2024/03/02 06:26:23;;;;;;;;;;;6.90;99.90;;;-146.41;100.00;57768.22;5038177;28;1094;-69
2024/03/02 06:28:52;;;;;;;;;;;6.90;99.90;;;-146.41;100.00;57768.22;5038518;28;1102;-69
2024/03/02 06:31:19;;;;;;;;;;;7.00;99.90;;;-146.41;100.00;57768.22;5040805;28;1449;-69
2024/03/02 06:33:45;;;;;;;;;;;6.90;99.90;;;-146.41;100.00;57768.22;5041195;28;1280;-69
2024/03/02 06:36:15;;;;;;;;;;;6.90;99.90;;;-146.41;100.00;57768.22;5041037;28;1094;-69
2024/03/02 06:38:42;;;;;;;;;;;6.90;99.90;;;-146.41;100.00;57768.22;5038884;28;1381;-69
2024/03/02 06:41:09;;;;;;;;;;;6.90;99.90;;;-146.41;100.00;57768.22;5037875;28;1264;-69
2024/03/02 06:43:36;;;;;;;;;;;6.90;99.90;;;-146.41;100.00;57768.22;5036846;28;1977;-70
2024/03/02 06:46:04;;;;;;;;;;;6.90;99.90;;;-146.41;100.00;57768.22;5035908;28;1090;-69
2024/03/02 06:48:31;;;;;;;;;;;6.90;99.90;;;-146.41;100.00;57768.22;5041892;28;1160;-69
2024/03/02 06:50:58;;;;;;;;;;;6.90;99.90;;;-146.41;100.00;57768.22;5038505;28;1449;-69
2024/03/02 06:53:25;;;;;;;;;;;6.90;99.90;;;-146.41;100.00;57768.22;5036167;28;1232;-69
2024/03/02 06:55:52;;;;;;;;;;;7.00;99.90;;;-146.41;100.00;57768.22;5040787;28;1257;-69
2024/03/02 06:58:19;;;;;;;;;;;7.10;99.90;;;-146.41;100.00;57768.22;5035738;28;1126;-69
2024/03/02 07:00:45;;;;;;;;;;;7.20;99.90;;;-146.41;100.00;57768.22;5035906;28;1320;-69
2024/03/02 07:03:13;;;;;;;;;;;7.20;99.90;;;-146.41;100.00;57768.22;5040062;28;1303;-69
2024/03/02 07:05:40;;;;;;;;;;;7.20;99.90;;;-146.41;100.00;57768.22;5036967;28;1987;-69
2024/03/02 07:08:07;;;;;;;;;;;7.20;99.90;;;-146.41;100.00;57768.22;5041137;28;1155;-69
2024/03/02 07:10:33;;;;;;;;;;;7.20;99.90;;;-146.41;100.00;57768.22;5036102;28;1296;-69
2024/03/02 07:13:00;;;;;;;;;;;7.20;99.90;;;-146.41;100.00;57768.22;5039843;28;1062;-69
2024/03/02 07:17:55;;;;;;;;;;;7.50;99.90;;;-146.41;100.00;57768.22;5040032;28;1203;-69
2024/03/02 07:20:21;;;;;;;;;;;7.50;99.90;;;-146.41;100.00;57768.22;5037067;28;1335;-69
2024/03/02 07:22:48;;;;;;;;;;;7.50;99.90;;;-146.41;100.00;57768.22;5036789;28;1224;-69
2024/03/02 07:25:15;;;;;;;;;;;7.60;99.90;;;-146.41;100.00;57768.22;5036672;28;1985;-69
2024/03/02 07:27:45;;;;;;;;;;;7.60;99.90;;;-146.41;100.00;57768.22;5041128;28;1173;-69
2024/03/02 07:30:16;;;;;;;;;;;7.60;99.90;;;-146.41;100.00;57768.22;5040477;28;1423;-69
2024/03/02 07:32:45;;;;;;;;;;;7.70;99.90;;;-146.41;100.00;57768.22;5053264;28;1251;-69
2024/03/02 07:35:16;;;;;;;;;;;7.70;99.90;;;-146.41;100.00;57768.22;5038485;28;1311;-69
2024/03/02 07:37:43;;;;;;;;;;;7.70;99.90;;;-146.41;100.00;57768.22;5037322;28;1256;-69
2024/03/02 07:40:14;;;;;;;;;;;7.80;99.90;;;-146.41;100.00;57768.22;5037965;28;1426;-69
2024/03/02 07:42:41;;;;;;;;;;;7.90;99.90;;;-146.41;100.00;57768.22;5034939;28;1248;-69
2024/03/02 07:45:08;;;;;;;;;;;8.10;99.90;;;-146.41;100.00;57768.22;5036660;28;1922;-67
2024/03/02 07:47:35;;;;;;;;;;;8.20;99.90;;;-146.41;100.00;57768.22;5038837;28;1066;-68
2024/03/02 07:50:02;;;;;;;;;;;8.20;99.90;;;-146.41;100.00;57768.22;5035915;28;1232;-68
2024/03/02 07:52:29;;;;;;;;;;;8.40;99.90;;;-146.41;100.00;57768.22;5038105;28;1275;-68
2024/03/02 07:54:56;;;;;;;;;;;8.60;99.90;;;-146.41;100.00;57768.22;5034507;28;1171;-68
2024/03/02 07:57:23;;;;;;;;;;;8.60;99.90;;;-146.41;100.00;57768.22;5034507;28;1185;-68
2024/03/02 07:59:50;;;;;;;;;;;8.60;99.90;;;-146.41;100.00;57768.22;5053645;28;1110;-68
2024/03/02 08:02:17;;;;;;;;;;;9.10;99.90;;;-146.41;100.00;57768.22;5035613;28;1390;-68
2024/03/02 08:04:45;;;;;;;;;;;9.40;99.90;;;-146.41;100.00;57768.22;5035159;28;1926;-68
2024/03/02 08:07:12;;;;;;;;;;;9.40;99.90;;;-146.41;100.00;57768.22;5039013;28;1275;-68
2024/03/02 08:09:39;;;;;;;;;;;9.20;99.90;;;-146.41;100.00;57768.22;5061385;28;1251;-69
2024/03/02 08:12:06;;;;;;;;;;;9.10;99.90;;;-146.41;100.00;57768.22;5045303;28;1284;-69
2024/03/02 08:14:33;;;;;;;;;;;9.00;99.90;;;-146.41;100.00;57768.22;5039793;28;1140;-68
2024/03/02 08:17:01;;;;;;;;;;;9.00;99.90;;;-146.41;100.00;57768.22;5042178;28;1408;-68
2024/03/02 08:19:28;;;;;;;;;;;8.90;99.90;;;-146.41;100.00;57768.22;5041545;28;1937;-68
2024/03/02 08:21:55;;;;;;;;;;;8.90;99.90;;;-146.41;100.00;57768.22;5045596;28;1331;-68
2024/03/02 08:24:22;;;;;;;;;;;8.90;99.90;;;-146.41;100.00;57768.22;5040457;28;1906;-68
2024/03/02 08:26:49;;;;;;;;;;;9.00;99.90;;;-146.41;100.00;57768.22;5041783;28;1030;-68
2024/03/02 08:29:16;;;;;;;;;;;9.00;99.90;;;-146.41;100.00;57768.22;5041311;28;1345;-68
2024/03/02 08:31:42;;;;;;;;;;;9.00;99.90;;;-146.41;100.00;57768.22;5038858;28;1300;-68
2024/03/02 08:34:09;;;;;;;;;;;8.80;99.90;;;-146.41;100.00;57768.22;5038982;28;1002;-68
2024/03/02 08:36:36;;;;;;;;;;;8.80;99.90;;;-146.41;100.00;57768.22;5039620;28;1181;-68
2024/03/02 08:39:07;;;;;;;;;;;8.80;99.90;;;-146.41;100.00;57768.22;5042837;28;1231;-69
2024/03/02 08:41:34;;;;;;;;;;;8.90;99.90;;;-146.41;100.00;57768.22;5040459;28;1406;-69
2024/03/02 08:44:01;;;;;;;;;;;9.00;99.90;;;-146.41;100.00;57768.22;5042706;28;1910;-69
2024/03/02 08:46:28;;;;;;;;;;;9.20;99.90;;;-146.41;100.00;57768.22;5038832;28;1029;-69
2024/03/02 08:48:55;;;;;;;;;;;9.40;99.90;;;-146.41;100.00;57768.22;5042022;28;997;-69
2024/03/02 08:51:22;;;;;;;;;;;9.50;99.90;;;-146.41;100.00;57768.22;5039257;28;1398;-69
2024/03/02 08:53:48;;;;;;;;;;;9.60;99.90;;;-146.41;100.00;57768.22;5037949;28;1121;-69
2024/03/02 08:56:15;;;;;;;;;;;9.70;99.90;;;-146.41;100.00;57768.22;5037466;28;1204;-69
2024/03/02 08:58:43;;;;;;;;;;;9.70;99.90;;;-146.41;100.00;57768.22;5035121;28;1342;-69
2024/03/02 09:01:10;;;;;;;;;;;9.80;99.90;;;-146.41;100.00;57768.22;5041285;28;1284;-70
2024/03/02 09:03:37;;;;;;;;;;;9.90;99.90;;;-146.41;100.00;57768.22;5037877;28;1360;-69
2024/03/02 09:06:04;;;;;;;;;;;9.90;99.90;;;-146.41;100.00;57768.22;5036901;28;2357;-69
2024/03/02 09:08:31;;;;;;;;;;;10.00;99.90;;;-146.41;100.00;57768.22;5039777;28;1137;-69
2024/03/02 09:10:59;;;;;;;;;;;10.10;99.90;;;-146.41;100.00;57768.22;5041433;28;1312;-69
2024/03/02 09:13:25;;;;;;;;;;;10.00;99.90;;;-146.41;100.00;57768.22;5041224;28;1149;-69
2024/03/02 09:15:52;;;;;;;;;;;10.00;99.90;;;-146.41;100.00;57768.22;5022487;28;1316;-69
2024/03/02 09:18:19;;;;;;;;;;;10.20;99.90;;;-146.41;100.00;57768.22;5037815;28;1236;-69
2024/03/02 09:20:46;;;;;;;;;;;10.30;99.90;;;-146.41;100.00;57768.22;5041956;28;1304;-70
2024/03/02 09:23:13;;;;;;;;;;;10.30;99.90;;;-146.41;100.00;57768.22;5036851;28;1227;-69
2024/03/02 09:25:40;;;;;;;;;;;10.30;99.90;;;-146.41;100.00;57768.22;5037424;28;1992;-69
2024/03/02 09:28:07;;;;;;;;;;;10.30;99.90;;;-146.41;100.00;57768.22;5038667;28;1119;-69
2024/03/02 09:30:34;;;;;;;;;;;10.30;99.90;;;-146.41;100.00;57768.22;5039406;28;1409;-69
2024/03/02 09:33:01;;;;;;;;;;;10.30;99.90;;;-146.41;100.00;57768.22;5041735;28;1164;-69
2024/03/02 09:35:31;;;;;;;;;;;10.40;99.90;;;-146.41;100.00;57768.22;5038938;28;1716;-69
2024/03/02 09:37:57;;;;;;;;;;;10.40;99.90;;;-146.41;100.00;57768.22;5037361;28;1102;-69
2024/03/02 09:40:25;;;;;;;;;;;10.50;99.90;;;-146.41;100.00;57768.22;5035173;28;1287;-69
2024/03/02 09:42:55;;;;;;;;;;;10.60;99.90;;;-146.41;100.00;57768.22;5030953;28;1240;-70
2024/03/02 09:45:24;;;;;;;;;;;10.70;99.90;;;-146.41;100.00;57768.22;5034434;28;1922;-69
2024/03/02 09:47:51;;;;;;;;;;;10.90;99.90;;;-146.41;100.00;57768.22;5042737;28;1284;-69
2024/03/02 09:50:17;;;;;;;;;;;10.90;99.90;;;-146.41;100.00;57768.22;5041970;28;1252;-69
2024/03/02 09:52:48;;;;;;;;;;;11.10;99.90;;;-146.41;100.00;57768.22;5042006;28;1509;-69
2024/03/02 09:55:15;;;;;;;;;;;11.10;99.90;;;-146.41;100.00;57768.22;5041512;28;1112;-69
2024/03/02 09:57:42;;;;;;;;;;;11.30;99.90;;;-146.41;100.00;57768.22;5039245;28;1275;-69
2024/03/02 10:00:14;;;;;;;;;;;11.50;99.90;;;-146.41;100.00;57768.22;5039002;28;1304;-69
2024/03/02 10:02:43;;;;;;;;;;;11.60;99.90;;;-146.41;100.00;57768.22;5037054;28;1058;-70
2024/03/02 10:05:10;;;;;;;;;;;11.60;99.90;;;-146.41;100.00;57768.22;5036093;28;1918;-70
2024/03/02 10:07:37;;;;;;;;;;;11.60;99.90;;;-146.41;100.00;57768.22;5040759;28;1127;-69
2024/03/02 10:10:13;;;;;;;;;;;11.60;99.90;;;-146.41;100.00;57768.22;5039195;28;1371;-69
2024/03/02 10:12:41;;;;;;;;;;;11.70;99.90;;;-146.41;100.00;57768.22;5039365;28;1247;-69
2024/03/02 10:15:09;;;;;;;;;;;11.70;99.90;;;-146.41;100.00;57768.22;5041944;28;1318;-69
2024/03/02 10:17:36;;;;;;;;;;;11.60;99.90;;;-146.41;100.00;57768.22;5042129;28;1687;-70
2024/03/02 10:20:28;;;;;;;;;;;11.70;99.90;;;-146.41;100.00;57768.22;5042210;28;1440;-69
2024/03/02 10:22:55;;;;;;;;;;;11.70;99.90;;;-146.41;100.00;57768.22;5038636;28;1301;-69
2024/03/02 10:25:33;;;;;;;;;;;11.80;99.90;;;-146.41;100.00;57768.22;5039556;28;1911;-69
2024/03/02 10:28:17;;;;;;;;;;;11.80;99.90;;;-146.41;100.00;57768.22;5041940;28;1118;-69
2024/03/02 10:30:47;;;;;;;;;;;12.10;99.90;;;-146.41;100.00;57768.22;5038349;28;1327;-69
2024/03/02 10:33:14;;;;;;;;;;;12.10;99.90;;;-146.41;100.00;57768.22;5039653;28;1280;-69
2024/03/02 10:35:42;;;;;;;;;;;12.20;99.90;;;-146.41;100.00;57768.22;5037493;28;1604;-69
2024/03/02 10:38:11;;;;;;;;;;;12.20;99.90;;;-146.41;100.00;57768.22;5038053;28;1350;-70
2024/03/02 10:40:37;;;;;;;;;;;12.30;99.90;;;-146.41;100.00;57768.22;5037242;28;1596;-69
2024/03/02 10:43:05;;;;;;;;;;;12.40;99.90;;;-146.41;100.00;57768.22;5038674;28;1090;-70
2024/03/02 10:45:33;;;;;;;;;;;12.30;99.90;;;-146.41;100.00;57768.22;5024995;28;1922;-67
2024/03/02 10:48:02;;;;;;;;;;;12.40;99.90;;;-146.41;100.00;57768.22;5037467;28;1230;-68
2024/03/02 10:50:29;;;;;;;;;;;12.40;99.90;;;-146.41;100.00;57768.22;5036922;28;1531;-67
2024/03/02 10:52:55;;;;;;;;;;;12.50;99.90;;;-146.41;100.00;57768.22;5054185;28;1465;-67
2024/03/02 10:55:22;;;;;;;;;;;12.70;99.90;;;-146.41;100.00;57768.22;5036966;28;1328;-70
2024/03/02 10:57:52;;;;;;;;;;;12.70;99.90;;;-146.41;100.00;57768.22;5036249;28;1531;-69
2024/03/02 11:00:24;;;;;;;;;;;12.70;99.90;;;-146.41;100.00;57768.22;5039514;28;1413;-70
2024/03/02 11:02:56;;;;;;;;;;;12.70;99.90;;;-146.41;100.00;57768.22;5038983;28;1294;-69
2024/03/02 11:05:26;;;;;;;;;;;;;;;-146.41;100.00;57768.22;5054035;28;1942;-70
2024/03/02 11:08:02;;;;;;;;;;;12.80;99.90;;;-146.41;100.00;57768.22;5042553;28;1332;-69
2024/03/02 11:10:35;;;;;;;;;;;12.70;99.90;;;-146.41;100.00;57768.22;5037008;28;1454;-69
2024/03/02 11:13:08;;;;;;;;;;;12.80;99.90;;;-146.41;100.00;57768.22;5036838;28;1210;-69
2024/03/02 11:15:38;;;;;;;;;;;12.90;99.90;;;-146.41;100.00;57768.22;5040146;28;1327;-69
2024/03/02 11:18:09;;;;;;;;;;;13.00;99.90;;;-146.41;100.00;57768.22;5037357;28;1471;-69